createdAt,value
2017-04-30T00:00:59.001Z,19.34
2017-04-30T00:02:08.983Z,19.38
2017-04-30T00:03:19.530Z,19.3
2017-04-30T00:04:29.825Z,19.35
2017-04-30T00:05:39.802Z,19.34
2017-04-30T00:06:50.081Z,19.3
2017-04-30T00:08:00.372Z,19.3
2017-04-30T00:09:10.600Z,19.38
2017-04-30T00:10:20.266Z,19.34
2017-04-30T00:11:30.552Z,19.29
2017-04-30T00:12:40.846Z,19.34
2017-04-30T00:13:50.819Z,19.27
2017-04-30T00:15:01.065Z,19.27
2017-04-30T00:16:10.727Z,19.32
2017-04-30T00:17:21.018Z,19.35
2017-04-30T00:18:31.300Z,19.34
2017-04-30T00:19:41.592Z,19.35
2017-04-30T00:20:51.814Z,19.38
2017-04-30T00:22:01.785Z,19.34
2017-04-30T00:23:12.073Z,19.23
2017-04-30T00:24:22.354Z,19.29
2017-04-30T00:25:32.663Z,19.32
2017-04-30T00:26:43.219Z,19.27
2017-04-30T00:27:53.209Z,19.24
2017-04-30T00:29:03.188Z,19.32
2017-04-30T00:30:13.157Z,19.26
2017-04-30T00:31:23.441Z,19.34
2017-04-30T00:32:33.978Z,19.24
2017-04-30T00:33:44.311Z,19.27
2017-04-30T00:34:54.289Z,19.29
2017-04-30T00:36:03.974Z,19.19
2017-04-30T00:37:14.251Z,19.32
2017-04-30T00:38:24.479Z,19.29
2017-04-30T00:39:34.990Z,19.34
2017-04-30T00:40:44.977Z,19.23
2017-04-30T00:41:54.950Z,19.29
2017-04-30T00:43:04.921Z,19.26
2017-04-30T00:44:15.466Z,19.27
2017-04-30T00:45:25.764Z,19.27
2017-04-30T00:46:35.676Z,19.32
2017-04-30T00:47:45.336Z,19.29
2017-04-30T00:48:55.626Z,19.23
2017-04-30T00:50:06.262Z,19.22
2017-04-30T00:51:16.545Z,19.24
2017-04-30T00:52:26.827Z,19.17
2017-04-30T00:53:36.485Z,19.27
2017-04-30T00:54:46.969Z,19.22
2017-04-30T00:55:57.562Z,19.23
2017-04-30T00:57:07.862Z,19.23
2017-04-30T00:58:18.152Z,19.27
2017-04-30T00:59:28.433Z,19.23
2017-04-30T01:00:38.724Z,19.2
2017-04-30T01:01:49.259Z,19.2
2017-04-30T01:02:59.559Z,19.26
2017-04-30T01:04:09.887Z,19.24
2017-04-30T01:05:20.171Z,19.17
2017-04-30T01:06:30.144Z,19.16
2017-04-30T01:07:40.672Z,19.17
2017-04-30T01:08:50.654Z,19.19
2017-04-30T01:10:00.948Z,19.2
2017-04-30T01:11:11.237Z,19.16
2017-04-30T01:12:21.534Z,19.17
2017-04-30T01:13:32.076Z,19.19
2017-04-30T01:14:41.444Z,19.2
2017-04-30T01:15:51.739Z,19.2
2017-04-30T01:17:02.071Z,19.17
2017-04-30T01:18:12.363Z,19.15
2017-04-30T01:19:22.896Z,19.2
2017-04-30T01:20:32.253Z,19.24
2017-04-30T01:21:42.533Z,19.17
2017-04-30T01:22:52.495Z,19.19
2017-04-30T01:24:02.772Z,19.2
2017-04-30T01:25:13.308Z,19.2
2017-04-30T01:26:23.581Z,19.17
2017-04-30T01:27:33.553Z,19.17
2017-04-30T01:28:43.528Z,19.19
2017-04-30T01:29:53.812Z,19.19
2017-04-30T01:31:04.071Z,19.19
2017-04-30T01:32:14.060Z,19.16
2017-04-30T01:33:24.347Z,19.16
2017-04-30T01:34:34.630Z,19.19
2017-04-30T01:35:44.596Z,19.15
2017-04-30T01:36:55.122Z,19.2
2017-04-30T01:38:05.403Z,19.15
2017-04-30T01:39:15.685Z,19.19
2017-04-30T01:40:25.348Z,19.2
2017-04-30T01:41:35.643Z,19.2
2017-04-30T01:42:46.184Z,19.22
2017-04-30T01:43:56.175Z,19.19
2017-04-30T01:45:06.149Z,19.16
2017-04-30T01:46:16.425Z,19.16
2017-04-30T01:47:26.401Z,19.19
2017-04-30T01:48:36.937Z,19.17
2017-04-30T01:49:47.225Z,19.22
2017-04-30T01:50:57.205Z,19.16
2017-04-30T01:52:07.172Z,19.17
2017-04-30T01:53:17.145Z,19.17
2017-04-30T01:54:27.359Z,19.17
2017-04-30T01:55:37.332Z,19.08
2017-04-30T01:56:47.611Z,19.2
2017-04-30T01:57:57.893Z,19.07
2017-04-30T01:59:07.558Z,19.16
2017-04-30T02:00:17.776Z,19.19
2017-04-30T02:01:28.058Z,19.05
2017-04-30T02:02:38.331Z,19.05
2017-04-30T02:03:48.620Z,19.07
2017-04-30T02:04:58.903Z,19.08
2017-04-30T02:06:09.132Z,19.05
2017-04-30T02:07:19.418Z,19.19
2017-04-30T02:08:29.078Z,19.05
2017-04-30T02:09:39.363Z,19.16
2017-04-30T02:10:49.644Z,19.08
2017-04-30T02:12:00.178Z,19.07
2017-04-30T02:13:10.469Z,19.05
2017-04-30T02:14:20.773Z,19.17
2017-04-30T02:15:31.055Z,19.05
2017-04-30T02:16:41.338Z,19.17
2017-04-30T02:17:51.928Z,19.07
2017-04-30T02:19:01.904Z,19.11
2017-04-30T02:20:12.175Z,19.07
2017-04-30T02:21:22.458Z,19.05
2017-04-30T02:22:32.433Z,19.08
2017-04-30T02:23:42.709Z,19.04
2017-04-30T02:24:52.679Z,19.08
2017-04-30T02:26:02.655Z,19.04
2017-04-30T02:27:12.319Z,19.07
2017-04-30T02:28:22.292Z,19.01
2017-04-30T02:29:32.835Z,19.07
2017-04-30T02:30:43.127Z,19.08
2017-04-30T02:31:53.105Z,19.08
2017-04-30T02:33:03.403Z,19.07
2017-04-30T02:34:13.698Z,19.11
2017-04-30T02:35:24.226Z,19.01
2017-04-30T02:36:34.512Z,19.04
2017-04-30T02:37:43.852Z,19.07
2017-04-30T02:38:54.132Z,19.04
2017-04-30T02:40:04.422Z,19.05
2017-04-30T02:41:14.950Z,19.04
2017-04-30T02:42:24.933Z,19.05
2017-04-30T02:43:34.910Z,19.05
2017-04-30T02:44:44.888Z,19.08
2017-04-30T02:45:54.850Z,19.01
2017-04-30T02:47:05.388Z,19.01
2017-04-30T02:48:15.675Z,19
2017-04-30T02:49:25.383Z,19.01
2017-04-30T02:50:35.674Z,19.07
2017-04-30T02:51:45.639Z,19.01
2017-04-30T02:52:56.171Z,19.05
2017-04-30T02:54:06.469Z,19.01
2017-04-30T02:55:16.767Z,19.07
2017-04-30T02:56:27.048Z,19.07
2017-04-30T02:57:37.335Z,18.94
2017-04-30T02:58:47.554Z,19
2017-04-30T02:59:57.841Z,19.05
2017-04-30T03:01:08.159Z,18.98
2017-04-30T03:02:18.439Z,18.98
2017-04-30T03:03:28.744Z,19.04
2017-04-30T03:04:39.278Z,18.98
2017-04-30T03:05:49.577Z,19.04
2017-04-30T03:06:59.545Z,19.07
2017-04-30T03:08:09.826Z,19.01
2017-04-30T03:09:20.109Z,19
2017-04-30T03:10:30.644Z,19
2017-04-30T03:11:40.927Z,18.96
2017-04-30T03:12:51.249Z,19.04
2017-04-30T03:14:00.917Z,19
2017-04-30T03:15:10.890Z,19.07
2017-04-30T03:16:21.114Z,19.01
2017-04-30T03:17:31.422Z,19.04
2017-04-30T03:18:41.387Z,18.97
2017-04-30T03:19:51.040Z,18.98
2017-04-30T03:21:01.318Z,18.92
2017-04-30T03:22:11.544Z,18.91
2017-04-30T03:23:21.823Z,18.94
2017-04-30T03:24:32.107Z,18.92
2017-04-30T03:25:42.389Z,18.96
2017-04-30T03:26:52.659Z,18.97
2017-04-30T03:28:03.198Z,18.88
2017-04-30T03:29:13.477Z,18.89
2017-04-30T03:30:23.446Z,18.94
2017-04-30T03:31:33.721Z,18.96
2017-04-30T03:32:44.001Z,18.88
2017-04-30T03:33:54.556Z,18.92
2017-04-30T03:35:04.846Z,18.96
2017-04-30T03:36:15.124Z,18.88
2017-04-30T03:37:25.407Z,18.91
2017-04-30T03:38:35.376Z,18.96
2017-04-30T03:39:45.593Z,18.92
2017-04-30T03:40:55.567Z,18.94
2017-04-30T03:42:05.527Z,18.86
2017-04-30T03:43:14.884Z,18.96
2017-04-30T03:44:25.176Z,18.92
2017-04-30T03:45:35.439Z,18.92
2017-04-30T03:46:45.724Z,18.96
2017-04-30T03:47:55.693Z,18.91
2017-04-30T03:49:05.668Z,18.94
2017-04-30T03:50:15.633Z,18.91
2017-04-30T03:51:26.206Z,18.92
2017-04-30T03:52:36.492Z,18.91
2017-04-30T03:53:46.463Z,18.89
2017-04-30T03:54:56.444Z,18.97
2017-04-30T03:56:06.418Z,18.88
2017-04-30T03:57:16.966Z,18.94
2017-04-30T03:58:26.941Z,18.91
2017-04-30T03:59:37.228Z,18.94
2017-04-30T04:00:47.523Z,18.98
2017-04-30T04:01:57.491Z,18.91
2017-04-30T04:03:08.023Z,18.86
2017-04-30T04:04:17.998Z,18.91
2017-04-30T04:05:28.271Z,18.94
2017-04-30T04:06:38.554Z,18.96
2017-04-30T04:07:48.519Z,18.96
2017-04-30T04:08:58.436Z,18.98
2017-04-30T04:10:08.407Z,19
2017-04-30T04:11:18.379Z,19
2017-04-30T04:12:28.354Z,18.98
2017-04-30T04:13:38.647Z,18.91
2017-04-30T04:14:49.188Z,18.86
2017-04-30T04:15:59.478Z,19.05
2017-04-30T04:17:09.785Z,18.97
2017-04-30T04:18:20.069Z,18.92
2017-04-30T04:19:30.049Z,18.94
2017-04-30T04:20:40.582Z,18.97
2017-04-30T04:21:50.861Z,19
2017-04-30T04:23:01.135Z,19.01
2017-04-30T04:24:11.103Z,19.01
2017-04-30T04:25:21.402Z,19.07
2017-04-30T04:26:31.932Z,19.01
2017-04-30T04:27:42.227Z,19.09
2017-04-30T04:28:52.517Z,19.04
2017-04-30T04:30:02.806Z,19.08
2017-04-30T04:31:13.087Z,19.04
2017-04-30T04:32:23.299Z,19.07
2017-04-30T04:33:33.276Z,19.04
2017-04-30T04:34:43.556Z,19.09
2017-04-30T04:35:53.831Z,19.15
2017-04-30T04:37:03.806Z,19.2
2017-04-30T04:38:14.338Z,19.16
2017-04-30T04:39:24.339Z,19.04
2017-04-30T04:40:34.661Z,19.07
2017-04-30T04:41:44.630Z,19.16
2017-04-30T04:42:54.604Z,19.17
2017-04-30T04:44:05.139Z,19.19
2017-04-30T04:45:15.426Z,19.26
2017-04-30T04:46:25.700Z,19.27
2017-04-30T04:47:35.979Z,19.27
2017-04-30T04:48:46.269Z,19.27
2017-04-30T04:49:56.817Z,19.23
2017-04-30T04:51:07.123Z,19.34
2017-04-30T04:52:17.088Z,19.32
2017-04-30T04:53:27.053Z,19.29
2017-04-30T04:54:37.333Z,19.37
2017-04-30T04:55:47.551Z,19.37
2017-04-30T04:56:57.847Z,19.38
2017-04-30T04:58:07.815Z,19.38
2017-04-30T04:59:17.476Z,19.37
2017-04-30T05:00:27.457Z,19.39
2017-04-30T05:01:37.984Z,19.32
2017-04-30T05:02:47.974Z,19.39
2017-04-30T05:03:57.325Z,19.42
2017-04-30T05:05:07.606Z,19.37
2017-04-30T05:06:17.879Z,19.48
2017-04-30T05:07:28.097Z,19.52
2017-04-30T05:08:38.070Z,19.35
2017-04-30T05:09:48.041Z,19.39
2017-04-30T05:10:58.012Z,19.48
2017-04-30T05:12:07.979Z,19.52
2017-04-30T05:13:18.539Z,19.49
2017-04-30T05:14:28.510Z,19.49
2017-04-30T05:15:38.177Z,19.39
2017-04-30T05:16:48.454Z,19.39
2017-04-30T05:17:58.749Z,19.38
2017-04-30T05:19:08.980Z,19.47
2017-04-30T05:20:19.259Z,19.47
2017-04-30T05:21:29.543Z,19.38
2017-04-30T05:22:39.828Z,19.45
2017-04-30T05:23:50.106Z,19.44
2017-04-30T05:24:59.703Z,19.55
2017-04-30T05:26:09.998Z,19.48
2017-04-30T05:27:20.282Z,19.45
2017-04-30T05:28:30.571Z,19.57
2017-04-30T05:29:40.851Z,19.52
2017-04-30T05:30:51.393Z,19.55
2017-04-30T05:32:01.671Z,19.57
2017-04-30T05:33:11.970Z,19.59
2017-04-30T05:34:22.254Z,19.59
2017-04-30T05:35:32.542Z,19.49
2017-04-30T05:36:42.446Z,19.49
2017-04-30T05:37:52.734Z,19.53
2017-04-30T05:39:02.720Z,19.52
2017-04-30T05:40:13.006Z,19.53
2017-04-30T05:41:22.971Z,19.49
2017-04-30T05:42:33.499Z,19.59
2017-04-30T05:43:43.485Z,19.59
2017-04-30T05:44:53.778Z,19.6
2017-04-30T05:46:03.764Z,19.55
2017-04-30T05:47:14.029Z,19.62
2017-04-30T05:48:24.259Z,19.57
2017-04-30T05:49:34.542Z,19.62
2017-04-30T05:50:44.527Z,19.48
2017-04-30T05:51:54.822Z,19.64
2017-04-30T05:53:05.114Z,19.55
2017-04-30T05:54:15.329Z,19.56
2017-04-30T05:55:25.305Z,19.63
2017-04-30T05:56:35.288Z,19.57
2017-04-30T05:57:45.569Z,19.53
2017-04-30T05:58:55.860Z,19.7
2017-04-30T06:00:06.408Z,19.63
2017-04-30T06:01:16.380Z,19.64
2017-04-30T06:02:26.674Z,19.63
2017-04-30T06:03:36.969Z,19.63
2017-04-30T06:04:47.255Z,19.67
2017-04-30T06:05:57.789Z,19.63
2017-04-30T06:07:08.061Z,19.64
2017-04-30T06:08:17.728Z,19.63
2017-04-30T06:09:27.708Z,19.64
2017-04-30T06:10:37.999Z,19.72
2017-04-30T06:11:48.222Z,19.75
2017-04-30T06:12:58.515Z,19.64
2017-04-30T06:14:08.501Z,19.7
2017-04-30T06:15:18.782Z,19.67
2017-04-30T06:16:29.085Z,19.7
2017-04-30T06:17:39.632Z,19.72
2017-04-30T06:18:49.915Z,19.67
2017-04-30T06:20:00.215Z,19.67
2017-04-30T06:21:10.495Z,19.71
2017-04-30T06:22:20.780Z,19.64
2017-04-30T06:23:31.001Z,19.7
2017-04-30T06:24:41.288Z,19.71
2017-04-30T06:25:51.569Z,19.72
2017-04-30T06:27:01.546Z,19.74
2017-04-30T06:28:11.535Z,19.66
2017-04-30T06:29:21.770Z,19.66
2017-04-30T06:30:32.069Z,19.72
2017-04-30T06:31:42.047Z,19.66
2017-04-30T06:32:52.033Z,19.67
2017-04-30T06:34:02.312Z,19.7
2017-04-30T06:35:12.225Z,19.71
2017-04-30T06:36:22.187Z,19.66
2017-04-30T06:37:32.159Z,19.7
2017-04-30T06:38:42.442Z,19.7
2017-04-30T06:39:52.721Z,19.71
2017-04-30T06:41:02.960Z,19.72
2017-04-30T06:42:13.250Z,19.71
2017-04-30T06:43:23.537Z,19.77
2017-04-30T06:44:33.844Z,19.67
2017-04-30T06:45:44.140Z,19.79
2017-04-30T06:46:54.424Z,19.77
2017-04-30T06:48:04.413Z,19.7
2017-04-30T06:49:14.699Z,19.78
2017-04-30T06:50:25.019Z,19.75
2017-04-30T06:51:35.314Z,19.7
2017-04-30T06:52:45.856Z,19.79
2017-04-30T06:53:55.838Z,19.74
2017-04-30T06:55:06.123Z,19.79
2017-04-30T06:56:16.406Z,19.81
2017-04-30T06:57:26.062Z,19.84
2017-04-30T06:58:36.604Z,19.84
2017-04-30T06:59:46.613Z,19.79
2017-04-30T07:00:56.938Z,19.79
2017-04-30T07:02:07.224Z,19.85
2017-04-30T07:03:17.213Z,19.77
2017-04-30T07:04:27.458Z,19.89
2017-04-30T07:05:37.757Z,19.72
2017-04-30T07:06:47.737Z,19.78
2017-04-30T07:07:58.025Z,19.82
2017-04-30T07:09:08.332Z,19.75
2017-04-30T07:10:18.874Z,19.74
2017-04-30T07:11:28.871Z,19.78
2017-04-30T07:12:39.166Z,19.77
2017-04-30T07:13:49.458Z,19.72
2017-04-30T07:14:59.432Z,19.84
2017-04-30T07:16:09.965Z,19.84
2017-04-30T07:17:20.270Z,19.82
2017-04-30T07:18:30.249Z,19.84
2017-04-30T07:19:40.541Z,19.75
2017-04-30T07:20:50.511Z,19.78
2017-04-30T07:22:01.048Z,19.78
2017-04-30T07:23:11.017Z,19.75
2017-04-30T07:24:21.304Z,19.79
2017-04-30T07:25:31.598Z,19.81
2017-04-30T07:26:41.562Z,19.82
2017-04-30T07:27:51.798Z,19.77
2017-04-30T07:29:02.099Z,19.87
2017-04-30T07:30:12.391Z,19.92
2017-04-30T07:31:22.680Z,19.89
2017-04-30T07:32:32.354Z,19.82
2017-04-30T07:33:42.582Z,19.9
2017-04-30T07:34:52.563Z,19.9
2017-04-30T07:36:02.853Z,19.84
2017-04-30T07:37:12.823Z,19.85
2017-04-30T07:38:23.123Z,19.82
2017-04-30T07:39:33.659Z,19.87
2017-04-30T07:40:43.365Z,19.87
2017-04-30T07:41:53.659Z,19.84
2017-04-30T07:43:03.643Z,19.82
2017-04-30T07:44:13.920Z,19.84
2017-04-30T07:45:24.146Z,19.89
2017-04-30T07:46:34.439Z,19.9
2017-04-30T07:47:44.431Z,19.85
2017-04-30T07:48:54.417Z,19.84
2017-04-30T07:50:04.702Z,19.82
2017-04-30T07:51:14.949Z,19.87
2017-04-30T07:52:25.242Z,19.94
2017-04-30T07:53:35.526Z,19.89
2017-04-30T07:54:45.812Z,19.87
2017-04-30T07:55:56.122Z,19.87
2017-04-30T07:57:06.659Z,19.85
2017-04-30T07:58:16.954Z,19.87
2017-04-30T07:59:26.627Z,19.85
2017-04-30T08:00:36.930Z,19.87
2017-04-30T08:01:46.930Z,19.89
2017-04-30T08:02:57.460Z,19.99
2017-04-30T08:04:07.763Z,19.87
2017-04-30T08:05:17.449Z,19.97
2017-04-30T08:06:27.443Z,19.9
2017-04-30T08:07:37.431Z,19.92
2017-04-30T08:08:47.966Z,19.85
2017-04-30T08:09:58.270Z,19.85
2017-04-30T08:11:07.929Z,19.82
2017-04-30T08:12:18.209Z,19.89
2017-04-30T08:13:28.181Z,19.85
2017-04-30T08:14:38.727Z,19.85
2017-04-30T08:15:49.018Z,19.89
2017-04-30T08:16:59.003Z,19.92
2017-04-30T08:18:09.291Z,19.96
2017-04-30T08:19:19.585Z,19.87
2017-04-30T08:20:30.123Z,19.89
2017-04-30T08:21:40.114Z,19.89
2017-04-30T08:22:50.402Z,19.87
2017-04-30T08:24:00.075Z,19.89
2017-04-30T08:25:10.371Z,19.94
2017-04-30T08:26:20.614Z,19.9
2017-04-30T08:27:30.901Z,19.85
2017-04-30T08:28:41.192Z,19.94
2017-04-30T08:29:51.172Z,19.93
2017-04-30T08:31:01.467Z,19.96
2017-04-30T08:32:11.404Z,19.87
2017-04-30T08:33:21.388Z,19.97
2017-04-30T08:34:31.676Z,19.9
2017-04-30T08:35:41.657Z,19.85
2017-04-30T08:36:51.645Z,19.93
2017-04-30T08:38:01.889Z,19.84
2017-04-30T08:39:12.181Z,19.89
2017-04-30T08:40:21.865Z,19.89
2017-04-30T08:41:31.851Z,19.87
2017-04-30T08:42:42.148Z,19.87
2017-04-30T08:43:52.773Z,19.84
2017-04-30T08:45:02.783Z,19.93
2017-04-30T08:46:12.768Z,19.87
2017-04-30T08:47:22.744Z,19.87
2017-04-30T08:48:33.043Z,19.84
2017-04-30T08:49:43.578Z,19.9
2017-04-30T08:50:53.890Z,19.87
2017-04-30T08:52:04.191Z,19.85
2017-04-30T08:53:14.500Z,19.84
2017-04-30T08:54:24.778Z,19.75
2017-04-30T08:55:35.327Z,19.84
2017-04-30T08:56:45.634Z,19.87
2017-04-30T08:57:55.641Z,19.81
2017-04-30T08:59:05.981Z,19.81
2017-04-30T09:00:16.290Z,19.9
2017-04-30T09:01:26.820Z,19.77
2017-04-30T09:02:36.839Z,19.82
2017-04-30T09:03:47.135Z,19.85
2017-04-30T09:04:57.440Z,19.84
2017-04-30T09:06:07.724Z,19.79
2017-04-30T09:07:17.655Z,19.82
2017-04-30T09:08:27.323Z,19.77
2017-04-30T09:09:37.636Z,19.82
2017-04-30T09:10:47.919Z,19.74
2017-04-30T09:11:57.910Z,19.72
2017-04-30T09:13:08.747Z,19.84
2017-04-30T09:14:18.720Z,19.74
2017-04-30T09:15:29.078Z,19.79
2017-04-30T09:16:39.049Z,19.75
2017-04-30T09:17:49.031Z,19.78
2017-04-30T09:18:59.282Z,19.81
2017-04-30T09:20:09.273Z,19.79
2017-04-30T09:21:19.268Z,19.85
2017-04-30T09:22:29.554Z,19.78
2017-04-30T09:23:39.843Z,19.81
2017-04-30T09:24:50.072Z,19.72
2017-04-30T09:26:00.040Z,19.85
2017-04-30T09:27:10.020Z,19.84
2017-04-30T09:28:19.996Z,19.85
2017-04-30T09:29:30.303Z,19.89
2017-04-30T09:30:40.528Z,19.89
2017-04-30T09:31:50.812Z,19.82
2017-04-30T09:33:00.808Z,19.9
2017-04-30T09:34:10.478Z,19.85
2017-04-30T09:35:20.768Z,19.89
2017-04-30T09:36:31.013Z,19.9
2017-04-30T09:37:40.995Z,19.84
2017-04-30T09:38:50.657Z,19.89
2017-04-30T09:40:00.963Z,19.85
2017-04-30T09:41:11.270Z,19.84
2017-04-30T09:42:21.809Z,19.92
2017-04-30T09:43:31.789Z,19.97
2017-04-30T09:44:41.779Z,19.89
2017-04-30T09:45:52.064Z,20.04
2017-04-30T09:47:02.054Z,19.99
2017-04-30T09:48:12.327Z,20.08
2017-04-30T09:49:22.638Z,19.99
2017-04-30T09:50:32.953Z,19.92
2017-04-30T09:51:42.923Z,20.02
2017-04-30T09:52:53.216Z,20.12
2017-04-30T09:54:03.787Z,20.15
2017-04-30T09:55:14.076Z,20.15
2017-04-30T09:56:24.364Z,20.18
2017-04-30T09:57:34.351Z,20.3
2017-04-30T09:58:44.673Z,20.19
2017-04-30T09:59:54.912Z,20.18
2017-04-30T10:01:05.197Z,20.24
2017-04-30T10:02:15.185Z,20.18
2017-04-30T10:03:25.483Z,20.17
2017-04-30T10:04:35.778Z,20.21
2017-04-30T10:05:46.022Z,20.17
2017-04-30T10:06:56.318Z,20.22
2017-04-30T10:08:06.624Z,20.19
2017-04-30T10:09:16.913Z,20.3
2017-04-30T10:10:27.231Z,20.29
2017-04-30T10:11:37.459Z,20.34
2017-04-30T10:12:47.450Z,20.34
2017-04-30T10:13:57.431Z,20.37
2017-04-30T10:15:07.409Z,20.21
2017-04-30T10:16:17.702Z,20.19
2017-04-30T10:17:27.621Z,20.22
2017-04-30T10:18:37.923Z,20.34
2017-04-30T10:19:47.603Z,20.32
2017-04-30T10:20:57.589Z,20.21
2017-04-30T10:22:07.884Z,20.24
2017-04-30T10:23:18.125Z,20.19
2017-04-30T10:24:28.436Z,20.22
2017-04-30T10:25:38.415Z,20.22
2017-04-30T10:26:48.708Z,20.26
2017-04-30T10:27:58.994Z,20.24
2017-04-30T10:29:09.224Z,20.22
2017-04-30T10:30:19.544Z,20.19
2017-04-30T10:31:29.523Z,20.22
2017-04-30T10:32:39.823Z,20.19
2017-04-30T10:33:49.806Z,20.24
2017-04-30T10:35:00.361Z,20.22
2017-04-30T10:36:10.348Z,20.22
2017-04-30T10:37:20.381Z,20.21
2017-04-30T10:38:30.676Z,20.19
2017-04-30T10:39:41.113Z,20.14
2017-04-30T10:40:51.360Z,20.26
2017-04-30T10:42:00.715Z,20.15
2017-04-30T10:43:10.382Z,20.18
2017-04-30T10:44:20.683Z,20.24
2017-04-30T10:45:30.982Z,20.18
2017-04-30T10:46:41.525Z,20.19
2017-04-30T10:47:51.821Z,20.22
2017-04-30T10:49:02.126Z,20.17
2017-04-30T10:50:12.425Z,20.18
2017-04-30T10:51:22.744Z,20.19
2017-04-30T10:52:32.973Z,20.24
2017-04-30T10:53:42.960Z,20.22
2017-04-30T10:54:52.960Z,20.24
2017-04-30T10:56:03.261Z,20.27
2017-04-30T10:57:13.251Z,20.21
2017-04-30T10:58:23.484Z,20.24
2017-04-30T10:59:33.777Z,20.21
2017-04-30T11:00:43.764Z,20.17
2017-04-30T11:01:53.755Z,20.24
2017-04-30T11:03:03.743Z,20.24
2017-04-30T11:04:13.993Z,20.19
2017-04-30T11:05:24.306Z,20.21
2017-04-30T11:06:34.608Z,20.24
2017-04-30T11:07:44.921Z,20.21
2017-04-30T11:08:55.200Z,20.24
2017-04-30T11:10:05.759Z,20.26
2017-04-30T11:11:16.045Z,20.22
2017-04-30T11:12:26.345Z,20.22
2017-04-30T11:13:36.346Z,20.18
2017-04-30T11:14:46.639Z,20.21
2017-04-30T11:15:56.870Z,20.27
2017-04-30T11:17:06.852Z,20.22
2017-04-30T11:18:16.844Z,20.29
2017-04-30T11:19:27.149Z,20.27
2017-04-30T11:20:37.439Z,20.27
2017-04-30T11:21:47.996Z,20.24
2017-04-30T11:22:58.283Z,20.29
2017-04-30T11:24:08.602Z,20.26
2017-04-30T11:25:18.926Z,20.21
2017-04-30T11:26:29.235Z,20.24
2017-04-30T11:27:39.781Z,20.21
2017-04-30T11:28:49.770Z,20.22
2017-04-30T11:29:59.739Z,20.27
2017-04-30T11:31:09.718Z,20.21
2017-04-30T11:32:20.014Z,20.26
2017-04-30T11:33:30.568Z,20.26
2017-04-30T11:34:40.851Z,20.22
2017-04-30T11:35:51.144Z,20.27
2017-04-30T11:37:01.442Z,20.22
2017-04-30T11:38:11.421Z,20.21
2017-04-30T11:39:21.665Z,20.21
2017-04-30T11:40:31.640Z,20.19
2017-04-30T11:41:41.616Z,20.24
2017-04-30T11:42:51.599Z,20.21
2017-04-30T11:44:01.582Z,20.19
2017-04-30T11:45:11.815Z,20.24
2017-04-30T11:46:21.806Z,20.19
2017-04-30T11:47:32.112Z,20.27
2017-04-30T11:48:42.109Z,20.22
2017-04-30T11:49:52.104Z,20.21
2017-04-30T11:51:02.648Z,20.24
2017-04-30T11:52:12.640Z,20.29
2017-04-30T11:53:22.939Z,20.22
2017-04-30T11:54:33.247Z,20.29
2017-04-30T11:55:43.219Z,20.19
2017-04-30T11:56:53.768Z,20.24
2017-04-30T11:58:03.774Z,20.26
2017-04-30T11:59:14.073Z,20.22
2017-04-30T12:00:23.432Z,20.27
2017-04-30T12:01:33.741Z,20.21
2017-04-30T12:02:44.299Z,20.19
2017-04-30T12:03:54.597Z,20.22
2017-04-30T12:05:04.605Z,20.22
2017-04-30T12:06:14.586Z,20.22
2017-04-30T12:07:24.575Z,20.17
2017-04-30T12:08:34.836Z,20.19
2017-04-30T12:09:44.836Z,20.19
2017-04-30T12:10:54.821Z,20.24
2017-04-30T12:12:05.109Z,20.26
2017-04-30T12:13:15.422Z,20.22
2017-04-30T12:14:25.963Z,20.24
2017-04-30T12:15:36.257Z,20.22
2017-04-30T12:16:46.571Z,20.19
2017-04-30T12:17:56.878Z,20.21
2017-04-30T12:19:06.864Z,20.24
2017-04-30T12:20:17.098Z,20.22
2017-04-30T12:21:27.072Z,20.18
2017-04-30T12:22:37.380Z,20.21
2017-04-30T12:23:47.682Z,20.19
2017-04-30T12:24:57.674Z,20.24
2017-04-30T12:26:08.220Z,20.21
2017-04-30T12:27:18.199Z,20.27
2017-04-30T12:28:28.494Z,20.22
2017-04-30T12:29:38.485Z,20.26
2017-04-30T12:30:48.469Z,20.21
2017-04-30T12:31:59.002Z,20.18
2017-04-30T12:33:08.982Z,20.22
2017-04-30T12:34:19.289Z,20.18
2017-04-30T12:35:29.005Z,20.26
2017-04-30T12:36:39.308Z,20.17
2017-04-30T12:37:49.856Z,20.21
2017-04-30T12:39:00.164Z,20.21
2017-04-30T12:40:10.199Z,20.24
2017-04-30T12:41:20.514Z,20.29
2017-04-30T12:42:30.497Z,20.22
2017-04-30T12:43:41.041Z,20.22
2017-04-30T12:44:51.019Z,20.22
2017-04-30T12:46:00.698Z,20.21
2017-04-30T12:47:11.023Z,20.24
2017-04-30T12:48:20.991Z,20.24
2017-04-30T12:49:31.539Z,20.22
2017-04-30T12:50:41.839Z,20.24
2017-04-30T12:51:51.818Z,20.24
2017-04-30T12:53:01.487Z,20.26
2017-04-30T12:54:11.490Z,20.3
2017-04-30T12:55:22.613Z,20.22
2017-04-30T12:56:32.908Z,20.24
2017-04-30T12:57:43.217Z,20.18
2017-04-30T12:58:53.527Z,20.27
2017-04-30T13:00:03.776Z,20.29
2017-04-30T13:01:14.014Z,20.19
2017-04-30T13:02:23.980Z,20.18
2017-04-30T13:03:33.969Z,20.15
2017-04-30T13:04:44.264Z,20.24
2017-04-30T13:05:54.556Z,20.27
2017-04-30T13:07:05.107Z,20.21
2017-04-30T13:08:15.576Z,20.24
2017-04-30T13:09:25.238Z,20.29
2017-04-30T13:10:35.247Z,20.19
2017-04-30T13:11:45.541Z,20.21
2017-04-30T13:12:55.783Z,20.17
2017-04-30T13:14:05.761Z,20.15
2017-04-30T13:15:15.429Z,20.12
2017-04-30T13:16:25.722Z,20.19
2017-04-30T13:17:36.022Z,20.1
2017-04-30T13:18:46.565Z,20.12
2017-04-30T13:19:56.233Z,20.11
2017-04-30T13:21:06.216Z,20.12
2017-04-30T13:22:16.189Z,20.12
2017-04-30T13:23:26.483Z,20.07
2017-04-30T13:24:37.031Z,20.1
2017-04-30T13:25:47.320Z,20.17
2017-04-30T13:26:56.685Z,20.11
2017-04-30T13:28:06.970Z,20.08
2017-04-30T13:29:17.252Z,20.14
2017-04-30T13:30:27.802Z,20.1
2017-04-30T13:31:38.095Z,20.15
2017-04-30T13:32:48.394Z,20.12
2017-04-30T13:33:58.709Z,20.17
2017-04-30T13:35:08.386Z,20.1
2017-04-30T13:36:18.928Z,20.24
2017-04-30T13:37:29.223Z,20.18
2017-04-30T13:38:39.213Z,20.11
2017-04-30T13:39:49.220Z,20.19
2017-04-30T13:40:58.889Z,20.24
2017-04-30T13:42:09.139Z,20.12
2017-04-30T13:43:19.473Z,20.1
2017-04-30T13:44:29.789Z,20.21
2017-04-30T13:45:40.105Z,20.21
2017-04-30T13:46:50.426Z,20.18
2017-04-30T13:48:00.973Z,20.21
2017-04-30T13:49:10.962Z,20.21
2017-04-30T13:50:21.281Z,20.24
2017-04-30T13:51:30.971Z,20.19
2017-04-30T13:52:41.266Z,20.29
2017-04-30T13:53:51.817Z,20.26
2017-04-30T13:55:01.844Z,20.22
2017-04-30T13:56:11.521Z,20.27
2017-04-30T13:57:21.825Z,20.26
2017-04-30T13:58:32.150Z,20.22
2017-04-30T13:59:41.775Z,20.18
2017-04-30T14:00:52.074Z,20.19
2017-04-30T14:02:02.356Z,20.24
2017-04-30T14:03:12.656Z,20.24
2017-04-30T14:04:22.952Z,20.17
2017-04-30T14:05:33.489Z,20.17
2017-04-30T14:06:43.491Z,20.19
2017-04-30T14:07:53.810Z,20.17
2017-04-30T14:09:04.109Z,20.18
2017-04-30T14:10:14.103Z,20.17
2017-04-30T14:11:24.329Z,20.22
2017-04-30T14:12:34.635Z,20.22
2017-04-30T14:13:44.621Z,20.17
2017-04-30T14:14:54.612Z,20.12
2017-04-30T14:16:04.932Z,20.1
2017-04-30T14:17:15.493Z,20.17
2017-04-30T14:18:25.799Z,20.12
2017-04-30T14:19:36.120Z,20.11
2017-04-30T14:20:46.111Z,20.1
2017-04-30T14:21:56.094Z,20.1
2017-04-30T14:23:06.325Z,20.12
2017-04-30T14:24:16.630Z,20.11
2017-04-30T14:25:26.928Z,20.18
2017-04-30T14:26:37.242Z,20.14
2017-04-30T14:27:47.526Z,20.1
2017-04-30T14:28:58.084Z,20.12
2017-04-30T14:30:08.070Z,20.12
2017-04-30T14:31:18.372Z,20.1
2017-04-30T14:32:28.668Z,20.11
2017-04-30T14:33:38.641Z,20.1
2017-04-30T14:34:48.874Z,20.03
2017-04-30T14:35:59.169Z,20.1
2017-04-30T14:37:09.472Z,20.1
2017-04-30T14:38:19.459Z,20.11
2017-04-30T14:39:29.774Z,20.17
2017-04-30T14:40:40.326Z,20.11
2017-04-30T14:41:50.642Z,20.11
2017-04-30T14:43:00.324Z,20.14
2017-04-30T14:44:10.314Z,20.14
2017-04-30T14:45:20.634Z,20.12
2017-04-30T14:46:30.874Z,20.08
2017-04-30T14:47:41.210Z,20.1
2017-04-30T14:48:51.536Z,20.08
2017-04-30T14:50:01.531Z,20.14
2017-04-30T14:51:11.827Z,20.11
2017-04-30T14:52:22.375Z,20.19
2017-04-30T14:53:32.371Z,20.17
2017-04-30T14:54:42.668Z,20.15
2017-04-30T14:55:52.975Z,20.12
2017-04-30T14:57:03.268Z,20
2017-04-30T14:58:13.851Z,20.08
2017-04-30T14:59:24.150Z,20.03
2017-04-30T15:00:34.471Z,20.08
2017-04-30T15:01:44.136Z,20.03
2017-04-30T15:02:54.419Z,19.99
2017-04-30T15:04:04.337Z,19.99
2017-04-30T15:05:14.627Z,19.99
2017-04-30T15:06:24.927Z,20.08
2017-04-30T15:07:35.233Z,20.12